createdAt,value
2022-09-13T00:29:20.511Z,1001.5
2022-09-13T00:30:00.899Z,1001.5
2022-09-13T00:30:41.411Z,1001.51
2022-09-13T00:31:21.989Z,1001.49
2022-09-13T00:32:02.449Z,1001.49
2022-09-13T00:32:42.877Z,1001.48
2022-09-13T00:33:23.325Z,1001.46
2022-09-13T00:34:03.791Z,1001.44
2022-09-13T00:34:44.276Z,1001.46
2022-09-13T00:35:24.776Z,1001.47
2022-09-13T00:36:05.299Z,1001.46
2022-09-13T00:36:45.881Z,1001.44
2022-09-13T00:37:26.401Z,1001.45
2022-09-13T00:38:06.954Z,1001.44
2022-09-13T00:38:47.484Z,1001.46
2022-09-13T00:39:28.074Z,1001.45
2022-09-13T00:40:08.627Z,1001.47
2022-09-13T00:40:49.073Z,1001.49
2022-09-13T00:41:29.570Z,1001.5
2022-09-13T00:42:10.074Z,1001.51
2022-09-13T00:42:50.524Z,1001.49
2022-09-13T00:46:04.373Z,1001.45
2022-09-13T00:46:44.969Z,1001.45
2022-09-13T00:47:25.540Z,1001.41
2022-09-13T00:48:06.099Z,1001.42
2022-09-13T00:48:46.557Z,1001.48
2022-09-13T00:49:27.020Z,1001.45
2022-09-13T00:50:07.557Z,1001.5
2022-09-13T00:50:48.083Z,1001.47
2022-09-13T00:51:28.551Z,1001.51
2022-09-13T00:52:09.076Z,1001.5
2022-09-13T00:52:49.572Z,1001.53
2022-09-13T00:53:30.003Z,1001.5
2022-09-13T00:54:10.552Z,1001.49
2022-09-13T00:54:51.100Z,1001.47
2022-09-13T00:55:31.548Z,1001.49
2022-09-13T00:56:12.099Z,1001.44
2022-09-13T00:56:52.566Z,1001.46
2022-09-13T00:57:33.079Z,1001.46
2022-09-13T00:58:13.547Z,1001.46
2022-09-13T00:58:54.019Z,1001.46
2022-09-13T00:59:34.524Z,1001.44
2022-09-13T01:00:14.989Z,1001.46
2022-09-13T01:00:55.573Z,1001.43
2022-09-13T01:01:36.014Z,1001.46
2022-09-13T01:02:16.634Z,1001.47
2022-09-13T01:02:57.065Z,1001.51
2022-09-13T01:03:37.620Z,1001.48
2022-09-13T01:04:18.075Z,1001.5
2022-09-13T01:04:58.583Z,1001.53
2022-09-13T01:05:39.165Z,1001.52
2022-09-13T01:06:19.639Z,1001.51
2022-09-13T01:07:00.176Z,1001.52
2022-09-13T01:07:40.714Z,1001.51
2022-09-13T01:08:21.178Z,1001.5
2022-09-13T01:09:01.662Z,1001.48
2022-09-13T01:09:42.334Z,1001.49
2022-09-13T01:10:22.865Z,1001.5
2022-09-13T01:11:03.279Z,1001.51
2022-09-13T01:11:43.733Z,1001.54
2022-09-13T01:12:24.213Z,1001.53
2022-09-13T01:13:04.726Z,1001.53
2022-09-13T01:13:45.225Z,1001.54
2022-09-13T01:14:25.867Z,1001.56
2022-09-13T01:15:06.344Z,1001.59
2022-09-13T01:15:46.860Z,1001.55
2022-09-13T01:17:08.107Z,1001.57
2022-09-13T01:17:48.293Z,1001.56
2022-09-13T01:18:28.834Z,1001.54
2022-09-13T01:19:09.310Z,1001.51
2022-09-13T01:19:49.784Z,1001.57
2022-09-13T01:20:30.280Z,1001.58
2022-09-13T01:21:10.913Z,1001.58
2022-09-13T01:21:51.367Z,1001.58
2022-09-13T01:22:31.929Z,1001.57
2022-09-13T01:23:12.429Z,1001.58
2022-09-13T01:23:52.920Z,1001.57
2022-09-13T01:24:33.432Z,1001.56
2022-09-13T01:25:14.241Z,1001.59
2022-09-13T01:25:54.705Z,1001.55
2022-09-13T01:26:35.241Z,1001.49
2022-09-13T01:27:15.753Z,1001.51
2022-09-13T01:27:56.245Z,1001.47
2022-09-13T01:28:36.713Z,1001.5
2022-09-13T01:29:17.223Z,1001.51
2022-09-13T01:29:57.721Z,1001.53
2022-09-13T01:30:38.241Z,1001.51
2022-09-13T01:31:18.774Z,1001.53
2022-09-13T01:31:59.311Z,1001.53
2022-09-13T01:32:39.909Z,1001.53
2022-09-13T01:33:20.363Z,1001.57
2022-09-13T01:34:00.869Z,1001.56
2022-09-13T01:34:41.417Z,1001.54
2022-09-13T01:35:21.846Z,1001.56
2022-09-13T01:36:02.321Z,1001.57
2022-09-13T01:36:42.836Z,1001.52
2022-09-13T01:37:23.369Z,1001.51
2022-09-13T01:38:03.966Z,1001.53
2022-09-13T01:38:44.359Z,1001.54
2022-09-13T01:39:24.883Z,1001.53
2022-09-13T01:40:05.435Z,1001.55
2022-09-13T01:40:45.945Z,1001.53
2022-09-13T01:41:26.419Z,1001.56
2022-09-13T01:42:47.545Z,1001.46
2022-09-13T01:43:28.154Z,1001.48
2022-09-13T01:44:08.836Z,1001.43
2022-09-13T01:44:49.814Z,1001.4
2022-09-13T01:45:30.329Z,1001.44
2022-09-13T01:46:10.821Z,1001.45
2022-09-13T01:46:51.287Z,1001.45
2022-09-13T01:47:31.892Z,1001.47
2022-09-13T01:48:12.348Z,1001.43
2022-09-13T01:48:52.861Z,1001.42
2022-09-13T01:49:33.351Z,1001.45
2022-09-13T01:50:54.340Z,1001.4
2022-09-13T01:51:34.808Z,1001.43
2022-09-13T01:52:15.308Z,1001.35
2022-09-13T01:52:56.025Z,1001.38
2022-09-13T01:53:36.509Z,1001.34
2022-09-13T01:54:16.991Z,1001.37
2022-09-13T01:54:57.482Z,1001.35
2022-09-13T01:56:18.478Z,1001.33
2022-09-13T01:56:58.952Z,1001.34
2022-09-13T01:57:39.453Z,1001.29
2022-09-13T01:58:19.990Z,1001.29
2022-09-13T01:59:00.546Z,1001.36
2022-09-13T01:59:40.991Z,1001.38
2022-09-13T02:00:21.497Z,1001.32
2022-09-13T02:01:02.030Z,1001.33
2022-09-13T02:01:42.552Z,1001.32
2022-09-13T02:02:23.022Z,1001.3
2022-09-13T02:03:03.506Z,1001.3
2022-09-13T02:03:44.022Z,1001.3
2022-09-13T02:04:24.543Z,1001.3
2022-09-13T02:05:05.062Z,1001.3
2022-09-13T02:05:45.557Z,1001.32
2022-09-13T02:06:26.071Z,1001.27
2022-09-13T02:07:06.530Z,1001.26
2022-09-13T02:07:46.987Z,1001.29
2022-09-13T02:08:27.434Z,1001.29
2022-09-13T02:09:08.088Z,1001.31
2022-09-13T02:09:48.610Z,1001.28
2022-09-13T02:10:29.096Z,1001.25
2022-09-13T02:11:09.623Z,1001.27
2022-09-13T02:11:50.089Z,1001.2
2022-09-13T02:12:30.620Z,1001.23
2022-09-13T02:13:11.173Z,1001.19
2022-09-13T02:14:32.156Z,1001.26
2022-09-13T02:15:12.711Z,1001.2
2022-09-13T02:15:53.191Z,1001.2
2022-09-13T02:16:33.706Z,1001.22
2022-09-13T02:17:14.162Z,1001.23
2022-09-13T02:17:54.631Z,1001.17
2022-09-13T02:18:35.075Z,1001.22
2022-09-13T02:19:15.660Z,1001.2
2022-09-13T02:19:56.062Z,1001.21
2022-09-13T02:20:36.626Z,1001.22
2022-09-13T02:21:17.102Z,1001.23
2022-09-13T02:21:57.646Z,1001.19
2022-09-13T02:22:38.129Z,1001.16
2022-09-13T02:23:18.608Z,1001.17
2022-09-13T02:26:32.553Z,1001.12
2022-09-13T02:27:13.241Z,1001.08
2022-09-13T02:27:53.712Z,1001.07
2022-09-13T02:28:34.267Z,1001.05
2022-09-13T02:29:55.148Z,1001.07
2022-09-13T02:30:35.562Z,1001.02
2022-09-13T02:31:16.080Z,1001.05
2022-09-13T02:31:56.603Z,1001.03
2022-09-13T02:32:37.107Z,1001.01
2022-09-13T02:33:17.550Z,1001
2022-09-13T02:33:58.137Z,1001.03
2022-09-13T02:34:38.604Z,1001
2022-09-13T02:35:19.119Z,1001.02
2022-09-13T02:35:59.578Z,1001.01
2022-09-13T02:36:40.117Z,1001.05
2022-09-13T02:37:20.591Z,1001.03
2022-09-13T02:38:01.096Z,1001.08
2022-09-13T02:38:41.585Z,1001.04
2022-09-13T02:40:02.612Z,1001.05
2022-09-13T02:40:43.023Z,1001.04
2022-09-13T02:41:23.547Z,1001.03
2022-09-13T02:42:04.019Z,1001.03
2022-09-13T02:42:44.540Z,1001.06
2022-09-13T02:43:25.135Z,1001.03
2022-09-13T02:44:05.566Z,1001.06
2022-09-13T02:44:46.036Z,1001.03
2022-09-13T02:45:26.611Z,1001.06
2022-09-13T02:46:07.063Z,1001.05
2022-09-13T02:46:47.552Z,1001.03
2022-09-13T02:47:28.181Z,1001.01
2022-09-13T02:48:08.660Z,1001.04
2022-09-13T02:48:49.298Z,1001.01
2022-09-13T02:49:29.644Z,1001.01
2022-09-13T02:50:10.219Z,1000.99
2022-09-13T02:50:50.649Z,1000.97
2022-09-13T02:51:31.142Z,1000.98
2022-09-13T02:52:11.627Z,1001
2022-09-13T02:52:52.129Z,1000.98
2022-09-13T02:53:32.639Z,1001
2022-09-13T02:54:13.140Z,1001.06
2022-09-13T02:54:53.636Z,1001.03
2022-09-13T02:55:34.123Z,1001.05
2022-09-13T02:56:14.639Z,1001.04
2022-09-13T02:56:55.979Z,1001.04
2022-09-13T02:57:36.399Z,1001.06
2022-09-13T02:58:16.914Z,1001.07
2022-09-13T02:58:57.398Z,1001.08
2022-09-13T02:59:37.937Z,1001.05
2022-09-13T03:00:18.452Z,1001.07
2022-09-13T03:00:59.062Z,1001.02
2022-09-13T03:01:39.470Z,1001.09
2022-09-13T03:02:20.065Z,1001.05
2022-09-13T03:03:00.840Z,1001.04
2022-09-13T03:03:41.170Z,1001.07
2022-09-13T03:04:24.403Z,1001.02
2022-09-13T03:05:04.960Z,1001.06
2022-09-13T03:05:46.209Z,1001.05
2022-09-13T03:06:26.690Z,1001.06
2022-09-13T03:07:07.350Z,1001.06
2022-09-13T03:07:47.789Z,1001.06
2022-09-13T03:08:29.102Z,1001
2022-09-13T03:09:09.940Z,1001.04
2022-09-13T03:09:50.773Z,1000.73
2022-09-13T03:11:11.773Z,1000.98
2022-09-13T03:11:52.555Z,1000.92
2022-09-13T03:15:07.063Z,1000.89
2022-09-13T03:15:47.578Z,1000.89
2022-09-13T03:16:28.121Z,1000.9
2022-09-13T03:17:08.531Z,1000.88
2022-09-13T03:17:49.069Z,1000.88
2022-09-13T03:18:30.519Z,1000.86
2022-09-13T03:19:11.009Z,1000.88
2022-09-13T03:19:51.509Z,1000.91
2022-09-13T03:20:31.991Z,1000.84
2022-09-13T03:21:12.541Z,1000.91
2022-09-13T03:21:52.991Z,1000.89
2022-09-13T03:22:33.489Z,1000.93
2022-09-13T03:23:13.993Z,1000.94
2022-09-13T03:23:54.491Z,1000.93
2022-09-13T03:24:34.952Z,1000.93
2022-09-13T03:25:15.453Z,1000.97
2022-09-13T03:25:55.989Z,1000.93
2022-09-13T03:26:36.469Z,1000.93
2022-09-13T03:27:16.984Z,1000.87
2022-09-13T03:27:57.490Z,1000.88
2022-09-13T03:28:38.054Z,1000.9
2022-09-13T03:29:18.535Z,1000.91
2022-09-13T03:29:58.975Z,1000.93
2022-09-13T03:30:39.473Z,1000.92
2022-09-13T03:31:21.205Z,1000.95
2022-09-13T03:32:00.599Z,1000.92
2022-09-13T03:32:41.036Z,1000.91
2022-09-13T03:33:21.551Z,1000.94
2022-09-13T03:34:02.045Z,1000.91
2022-09-13T03:34:42.538Z,1000.9
2022-09-13T03:35:23.006Z,1000.89
2022-09-13T03:36:03.531Z,1000.89
2022-09-13T03:36:44.059Z,1000.85
2022-09-13T03:37:25.112Z,1000.82
2022-09-13T03:38:05.241Z,1000.82
2022-09-13T03:38:45.793Z,1000.8
2022-09-13T03:39:26.220Z,1000.82
2022-09-13T03:40:06.815Z,1000.78
2022-09-13T03:40:47.237Z,1000.77
2022-09-13T03:41:27.735Z,1000.77
2022-09-13T03:42:08.209Z,1000.76
2022-09-13T03:42:48.692Z,1000.75
2022-09-13T03:43:29.205Z,1000.78
2022-09-13T03:44:09.664Z,1000.79
2022-09-13T03:44:50.206Z,1000.77
2022-09-13T03:46:11.160Z,1000.77
2022-09-13T03:46:51.691Z,1000.76
2022-09-13T03:47:32.207Z,1000.75
2022-09-13T03:48:12.709Z,1000.72
2022-09-13T03:48:53.216Z,1000.75
2022-09-13T03:49:33.685Z,1000.78
2022-09-13T03:50:14.201Z,1000.8
2022-09-13T03:50:54.775Z,1000.8
2022-09-13T03:51:35.257Z,1000.81
2022-09-13T03:52:15.780Z,1000.84
2022-09-13T03:52:56.285Z,1000.8
2022-09-13T03:53:36.829Z,1000.81
2022-09-13T03:54:17.292Z,1000.8
2022-09-13T03:54:57.760Z,1000.84
2022-09-13T03:56:18.748Z,1000.87
2022-09-13T03:56:59.265Z,1000.85
2022-09-13T03:57:39.745Z,1000.86
2022-09-13T03:58:20.312Z,1000.87
2022-09-13T03:59:00.779Z,1000.85
2022-09-13T03:59:41.272Z,1000.82
2022-09-13T04:00:21.752Z,1000.52
2022-09-13T04:01:02.315Z,1000.83
2022-09-13T04:01:42.770Z,1000.81
2022-09-13T04:02:23.341Z,1000.83
2022-09-13T04:03:03.762Z,1000.84
2022-09-13T04:03:44.281Z,1000.83
2022-09-13T04:04:24.765Z,1000.84
2022-09-13T04:05:05.372Z,1000.88
2022-09-13T04:05:45.839Z,1000.87
2022-09-13T04:06:26.365Z,1000.89
2022-09-13T04:07:06.929Z,1000.89
2022-09-13T04:07:47.433Z,1000.93
2022-09-13T04:08:27.890Z,1000.89
2022-09-13T04:09:08.385Z,1000.96
2022-09-13T04:09:48.968Z,1000.98
2022-09-13T04:10:29.519Z,1001
2022-09-13T04:11:10.093Z,1001.02
2022-09-13T04:11:51.514Z,1001
2022-09-13T04:12:32.656Z,1000.96
2022-09-13T04:13:13.129Z,1000.95
2022-09-13T04:13:53.650Z,1000.95
2022-09-13T04:14:34.138Z,1000.95
2022-09-13T04:15:14.662Z,1000.92
2022-09-13T04:15:56.163Z,1000.93
2022-09-13T04:16:36.701Z,1000.92
2022-09-13T04:17:17.208Z,1000.91
2022-09-13T04:17:57.752Z,1000.89
2022-09-13T04:18:38.265Z,1000.93
2022-09-13T04:19:18.762Z,1000.95
2022-09-13T04:19:59.262Z,1000.96
2022-09-13T04:20:39.892Z,1000.95
2022-09-13T04:21:20.347Z,1000.93
2022-09-13T04:22:00.837Z,1000.99
2022-09-13T04:22:41.328Z,1001.01
2022-09-13T04:23:21.862Z,1000.99
2022-09-13T04:24:02.412Z,1001.01
2022-09-13T04:24:42.913Z,1001
2022-09-13T04:25:23.426Z,1001.02
2022-09-13T04:26:03.927Z,1001.03
2022-09-13T04:26:44.433Z,1001.02
2022-09-13T04:29:43.048Z,1001.03
2022-09-13T04:30:23.816Z,1001.07
2022-09-13T04:31:04.215Z,1001.05
2022-09-13T04:31:44.748Z,1001.08
2022-09-13T04:32:25.282Z,1001.12
2022-09-13T04:33:05.709Z,1001.11
2022-09-13T04:33:46.205Z,1001.09
2022-09-13T04:34:26.699Z,1001.13
2022-09-13T04:35:07.852Z,1001.13
2022-09-13T04:36:28.850Z,1001.16
2022-09-13T04:37:09.355Z,1001.18
2022-09-13T04:37:49.908Z,1001.17
2022-09-13T04:38:30.438Z,1001.2
2022-09-13T04:41:30.103Z,1001.21
2022-09-13T04:42:10.463Z,1001.21
2022-09-13T04:42:50.971Z,1001.22
2022-09-13T04:43:31.449Z,1001.23
2022-09-13T04:44:11.917Z,1001.27
2022-09-13T04:44:52.450Z,1001.21
2022-09-13T04:45:32.994Z,1001.23
2022-09-13T04:46:13.476Z,1001.21
2022-09-13T04:46:53.893Z,1001.2
2022-09-13T04:47:34.394Z,1001.19
2022-09-13T04:48:14.882Z,1001.2
2022-09-13T04:48:55.305Z,1001.19
2022-09-13T04:49:35.769Z,1001.14
2022-09-13T04:50:16.316Z,1001.19
2022-09-13T04:51:37.384Z,1001.18
2022-09-13T04:52:17.873Z,1001.19
2022-09-13T04:52:58.343Z,1001.21
2022-09-13T04:53:38.894Z,1001.15
2022-09-13T04:54:19.346Z,1001.15
2022-09-13T04:54:59.822Z,1001.18
2022-09-13T04:55:40.426Z,1001.18
2022-09-13T04:56:20.763Z,1001.14
2022-09-13T04:57:01.340Z,1001.14
2022-09-13T04:57:41.816Z,1001.1
2022-09-13T04:58:22.316Z,1001.11
2022-09-13T04:59:02.795Z,1001.12
2022-09-13T04:59:43.322Z,1001.1
2022-09-13T05:00:23.863Z,1001.12
2022-09-13T05:01:04.417Z,1001.07
2022-09-13T05:01:45.071Z,1001.09
2022-09-13T05:02:25.504Z,1001.05
2022-09-13T05:03:05.987Z,1001.06
2022-09-13T05:03:46.398Z,1001.06
2022-09-13T05:04:26.914Z,1001.06
2022-09-13T05:05:07.446Z,1001.06
2022-09-13T05:05:47.878Z,1001.07
2022-09-13T05:06:28.385Z,1001.09
2022-09-13T05:07:08.943Z,1001.05
2022-09-13T05:07:49.445Z,1001.07
2022-09-13T05:09:10.622Z,1001.06
2022-09-13T05:09:50.919Z,1001.03
2022-09-13T05:10:31.534Z,1001.04
2022-09-13T05:11:12.006Z,1001.06
2022-09-13T05:11:52.512Z,1001.07
2022-09-13T05:12:33.049Z,1001.1
2022-09-13T05:13:13.536Z,1001.12
2022-09-13T05:13:54.090Z,1001.04
2022-09-13T05:14:34.520Z,1001.04
2022-09-13T05:15:15.053Z,1001.05
2022-09-13T05:15:55.565Z,1001.05
2022-09-13T05:16:36.044Z,1001.06
2022-09-13T05:17:16.547Z,1001.09
2022-09-13T05:17:57.060Z,1001.06
2022-09-13T05:18:39.938Z,1001.04
2022-09-13T05:19:18.149Z,1001.03
2022-09-13T05:19:58.594Z,1001.02
2022-09-13T05:20:39.132Z,1001.03
2022-09-13T05:21:19.673Z,1001.01
2022-09-13T05:22:00.131Z,1001.01
2022-09-13T05:22:40.709Z,1001.01
2022-09-13T05:23:21.150Z,1001.01
2022-09-13T05:24:01.808Z,1001
2022-09-13T05:24:42.268Z,1001.02
2022-09-13T05:25:25.940Z,1001.03
2022-09-13T05:26:03.242Z,1001.07
2022-09-13T05:26:43.797Z,1001.03
2022-09-13T05:27:24.355Z,1001.09
2022-09-13T05:28:04.892Z,1001.08
2022-09-13T05:28:45.582Z,1001.09
2022-09-13T05:29:26.058Z,1001.11
2022-09-13T05:30:06.410Z,1001.12
2022-09-13T05:30:46.909Z,1001.08
2022-09-13T05:31:27.470Z,1001.11
2022-09-13T05:32:07.958Z,1001.1
2022-09-13T05:32:48.475Z,1001.11
2022-09-13T05:33:28.925Z,1001.11
2022-09-13T05:34:09.487Z,1001.09
2022-09-13T05:34:50.001Z,1001.06
2022-09-13T05:35:30.580Z,1001.05
2022-09-13T05:36:11.239Z,1001.02
2022-09-13T05:36:54.304Z,1001.05
2022-09-13T05:37:32.253Z,1001
2022-09-13T05:38:12.822Z,1001.02
2022-09-13T05:39:06.748Z,1000.99
2022-09-13T05:39:48.725Z,1001.01
2022-09-13T05:40:14.649Z,1000.97
2022-09-13T05:40:55.047Z,1000.9
2022-09-13T05:41:35.450Z,1000.91
2022-09-13T05:42:16.092Z,1000.89
2022-09-13T05:42:56.735Z,1000.89
2022-09-13T05:43:37.257Z,1000.89
2022-09-13T05:44:58.356Z,1000.9
2022-09-13T05:45:38.867Z,1000.86
2022-09-13T05:46:19.504Z,1000.89
2022-09-13T05:46:59.923Z,1000.88
2022-09-13T05:47:40.558Z,1000.92
2022-09-13T05:48:21.115Z,1000.91
2022-09-13T05:49:01.581Z,1000.91
2022-09-13T05:50:02.173Z,1000.92
2022-09-13T05:50:45.011Z,1000.93
2022-09-13T05:51:03.121Z,1000.89
2022-09-13T05:51:43.658Z,1000.93
2022-09-13T05:52:24.145Z,1000.93
2022-09-13T05:53:04.656Z,1000.9
2022-09-13T05:53:45.195Z,1000.95
2022-09-13T06:32:03.058Z,1001
2022-09-13T06:32:43.610Z,1001.01
2022-09-13T06:33:24.315Z,1001.01
2022-09-13T06:34:05.462Z,1001.02
2022-09-13T06:34:47.102Z,1001.01
2022-09-13T06:35:27.805Z,1001.06
2022-09-13T06:36:08.430Z,1001.02
2022-09-13T06:36:49.873Z,1000.99
2022-09-13T06:37:31.201Z,1000.97
2022-09-13T06:38:11.784Z,1000.9
2022-09-13T06:38:52.582Z,1000.91
2022-09-13T06:39:35.545Z,1000.91
2022-09-13T06:40:16.144Z,1000.96
2022-09-13T06:40:57.629Z,1000.99
2022-09-13T06:42:54.886Z,1000.96
2022-09-13T06:43:35.689Z,1000.97
2022-09-13T06:44:16.214Z,1000.95
2022-09-13T06:44:56.723Z,1000.95
2022-09-13T06:45:37.280Z,1000.94
2022-09-13T06:46:20.533Z,1000.99
2022-09-13T06:46:58.536Z,1000.98
2022-09-13T06:47:39.157Z,1001
2022-09-13T06:48:19.676Z,1001.02
2022-09-13T06:49:00.639Z,1001.04
2022-09-13T06:49:41.206Z,1001.06
2022-09-13T06:50:22.005Z,1001.09
2022-09-13T06:51:02.554Z,1001.05
2022-09-13T06:51:43.158Z,1001.09
2022-09-13T06:52:23.685Z,1001.08
2022-09-13T06:53:45.701Z,1001.09
2022-09-13T06:54:26.870Z,1001.12
2022-09-13T06:55:12.046Z,1001.11
2022-09-13T06:55:48.381Z,1001.13
2022-09-13T06:56:28.984Z,1001.12
2022-09-13T06:57:09.568Z,1001.16
2022-09-13T06:57:50.181Z,1001.13
2022-09-13T06:58:31.175Z,1001.04
2022-09-13T06:59:11.749Z,1001.09
2022-09-13T06:59:52.237Z,1001.06
2022-09-13T07:00:32.836Z,1001.05
2022-09-13T07:01:13.438Z,1001.05
2022-09-13T07:01:53.967Z,1001.05
2022-09-13T07:02:36.021Z,1001.04
2022-09-13T07:03:16.582Z,1001.03
2022-09-13T07:03:57.114Z,1001.04
2022-09-13T07:04:37.733Z,1001.05
2022-09-13T07:05:18.292Z,1001.08
2022-09-13T07:05:59.028Z,1001.09
2022-09-13T07:06:39.673Z,1001.1
2022-09-13T07:07:20.298Z,1001.09
2022-09-13T07:08:00.813Z,1001.11
2022-09-13T07:08:41.579Z,1001.15
2022-09-13T07:09:22.163Z,1001.12
2022-09-13T07:10:03.478Z,1001.12
2022-09-13T07:10:43.861Z,1001.05
2022-09-13T07:11:24.591Z,1001.1
2022-09-13T07:13:53.366Z,1001.09
2022-09-13T07:14:35.187Z,1001.06
2022-09-13T07:15:15.657Z,1001.07
2022-09-13T07:15:56.154Z,1001.08
2022-09-13T07:16:36.750Z,1001.06
2022-09-13T07:17:17.186Z,1001.04
2022-09-13T07:17:57.695Z,1000.98
2022-09-13T07:18:38.503Z,1001.03
2022-09-13T07:19:19.090Z,1001
2022-09-13T07:20:00.589Z,1001.02
2022-09-13T07:20:41.207Z,1000.98
2022-09-13T07:21:22.620Z,1001.03
2022-09-13T07:22:02.715Z,1001.01
2022-09-13T07:22:44.129Z,1001.03
2022-09-13T07:23:24.747Z,1001.04
2022-09-13T07:24:05.245Z,1001.02
2022-09-13T07:24:45.767Z,1001.02
2022-09-13T07:25:26.901Z,1001.05
2022-09-13T07:26:07.538Z,1001.07
2022-09-13T07:26:47.991Z,1001.08
2022-09-13T07:27:28.584Z,1001.06
2022-09-13T07:28:09.247Z,1001.06
2022-09-13T07:28:49.917Z,1001.06
2022-09-13T07:29:30.458Z,1001.07
2022-09-13T07:30:11.018Z,1001.1
2022-09-13T07:30:51.602Z,1001.1
2022-09-13T07:31:32.159Z,1001.1
2022-09-13T07:32:12.612Z,1001.09
2022-09-13T07:32:53.104Z,1001.06
2022-09-13T07:33:33.681Z,1001.04
2022-09-13T07:34:55.280Z,1001.03
2022-09-13T07:35:35.813Z,1001.02
2022-09-13T07:36:17.798Z,1001.04
2022-09-13T07:36:58.269Z,1001.03
2022-09-13T07:37:39.360Z,1001.01
2022-09-13T07:38:19.864Z,1001.04
2022-09-13T07:39:00.209Z,1001.09
2022-09-13T07:39:41.031Z,1001.07
2022-09-13T07:40:21.571Z,1001.1
2022-09-13T07:41:02.024Z,1001.12
2022-09-13T07:41:42.861Z,1001.18
2022-09-13T07:43:04.038Z,1001.16
2022-09-13T07:43:44.462Z,1001.15
2022-09-13T07:44:25.972Z,1001.16
2022-09-13T07:47:54.970Z,1001.18
2022-09-13T07:48:36.123Z,1001.18
2022-09-13T07:49:16.480Z,1001.21
2022-09-13T07:49:57.091Z,1001.27
2022-09-13T07:50:37.529Z,1001.23
2022-09-13T07:51:18.182Z,1001.27
2022-09-13T07:51:58.697Z,1001.26
2022-09-13T07:52:39.831Z,1001.22
2022-09-13T07:53:23.799Z,1001.19
2022-09-13T07:54:04.219Z,1001.19
2022-09-13T07:54:44.829Z,1001.22
2022-09-13T07:55:26.621Z,1001.22
2022-09-13T07:56:06.909Z,1001.19
2022-09-13T07:56:47.529Z,1001.21
2022-09-13T07:57:28.191Z,1001.24
2022-09-13T07:58:50.183Z,1001.22
2022-09-13T07:59:30.604Z,1001.26
2022-09-13T08:00:11.304Z,1001.25
2022-09-13T08:00:51.885Z,1001.25
2022-09-13T08:01:32.511Z,1001.22
2022-09-13T08:02:13.829Z,1001.24
2022-09-13T08:02:55.496Z,1000.91
2022-09-13T08:03:35.929Z,1001.26
2022-09-13T08:04:16.541Z,1001.28
2022-09-13T08:04:57.098Z,1001.27
2022-09-13T08:06:18.196Z,1001.24
2022-09-13T08:06:58.769Z,1001.21
2022-09-13T08:07:39.300Z,1001.18
2022-09-13T08:08:20.832Z,1001.14
2022-09-13T08:09:01.385Z,1001.17
2022-09-13T08:09:41.975Z,1001.17
2022-09-13T08:10:22.497Z,1001.15
2022-09-13T08:11:03.040Z,1001.19
2022-09-13T08:11:43.522Z,1001.18
2022-09-13T08:12:24.075Z,1001.21
2022-09-13T08:13:06.432Z,1001.19
2022-09-13T08:13:47.852Z,1001.18
2022-09-13T08:14:28.513Z,1001.17
2022-09-13T08:15:09.065Z,1001.14
2022-09-13T08:15:49.658Z,1001.14
2022-09-13T08:16:30.592Z,1001.15
2022-09-13T08:17:10.972Z,1001.13
2022-09-13T08:17:51.515Z,1001.12
2022-09-13T08:18:31.999Z,1001.14
2022-09-13T08:21:30.997Z,1001.19
2022-09-13T08:22:11.685Z,1001.15
2022-09-13T08:22:52.154Z,1001.13
2022-09-13T08:23:33.311Z,1001.17
2022-09-13T08:24:13.738Z,1001.14
2022-09-13T08:24:54.437Z,1001.19
2022-09-13T08:25:34.781Z,1001.18
2022-09-13T08:26:15.527Z,1001.22
2022-09-13T08:26:56.809Z,1001.29
2022-09-13T08:27:37.303Z,1001.23
2022-09-13T08:28:17.836Z,1001.21
2022-09-13T08:28:58.354Z,1001.22
2022-09-13T08:29:39.006Z,1001.23
2022-09-13T08:30:19.609Z,1001.19
2022-09-13T08:31:00.187Z,1001.16
2022-09-13T08:31:41.314Z,1001.22
2022-09-13T08:32:21.845Z,1001.21
2022-09-13T08:33:02.437Z,1001.17
2022-09-13T08:33:46.372Z,1001.19
2022-09-13T08:34:23.510Z,1001.19
2022-09-13T08:35:04.175Z,1001.22
2022-09-13T08:35:44.771Z,1001.21
2022-09-13T08:36:25.294Z,1001.2
2022-09-13T08:37:05.979Z,1001.21
2022-09-13T08:37:47.422Z,1001.24
2022-09-13T08:38:28.005Z,1001.25
2022-09-13T08:39:08.616Z,1001.28
2022-09-13T08:39:49.270Z,1001.3
2022-09-13T08:40:30.314Z,1001.32
2022-09-13T08:41:10.810Z,1001.3
2022-09-13T08:41:51.579Z,1001.3
2022-09-13T08:42:32.159Z,1001.29
2022-09-13T08:43:12.674Z,1001.31
2022-09-13T08:43:53.756Z,1001.3
2022-09-13T08:44:34.590Z,1001.32
2022-09-13T08:45:15.353Z,1001.33
2022-09-13T08:45:56.177Z,1001.32
2022-09-13T08:46:36.805Z,1001.34
2022-09-13T08:47:17.233Z,1001.34
2022-09-13T08:47:57.820Z,1001.36
2022-09-13T08:48:38.878Z,1001.38
2022-09-13T08:49:18.982Z,1001.36
2022-09-13T08:49:59.438Z,1001.4
2022-09-13T08:50:41.203Z,1001.37
2022-09-13T08:56:15.348Z,1001.34
2022-09-13T08:56:57.023Z,1001.32
2022-09-13T08:57:37.518Z,1001.34
2022-09-13T08:58:18.026Z,1001.32
2022-09-13T08:58:58.664Z,1001.33
2022-09-13T09:02:13.600Z,1001.27
2022-09-13T09:02:54.136Z,1001.29
2022-09-13T09:04:48.800Z,1001.3
2022-09-13T09:08:14.810Z,1001.36
2022-09-13T09:08:54.613Z,1001.32
2022-09-13T09:09:35.375Z,1001.35
2022-09-13T09:10:15.932Z,1001.35
2022-09-13T09:10:56.525Z,1001.34
2022-09-13T09:11:37.034Z,1001.28
2022-09-13T09:12:17.494Z,1001.25
2022-09-13T09:12:58.267Z,1001.29
2022-09-13T09:13:40.060Z,1001.26
2022-09-13T09:14:20.531Z,1001.3
2022-09-13T09:15:01.724Z,1001.3
2022-09-13T09:15:42.437Z,1001.29
2022-09-13T09:16:25.771Z,1001.23
2022-09-13T09:17:06.382Z,1001.3
2022-09-13T09:17:47.018Z,1001.28
2022-09-13T09:18:27.486Z,1001.27
2022-09-13T09:19:49.261Z,1001.28
2022-09-13T09:20:29.825Z,1001.27
2022-09-13T09:21:10.403Z,1001.3
2022-09-13T09:21:50.912Z,1001.28
2022-09-13T09:22:31.553Z,1001.33
2022-09-13T09:23:12.050Z,1001.31
2022-09-13T09:23:52.631Z,1001.33
2022-09-13T09:24:33.170Z,1001.34
2022-09-13T09:25:13.799Z,1001.35
2022-09-13T09:25:54.351Z,1001.38
2022-09-13T09:26:34.830Z,1001.42
2022-09-13T09:27:15.471Z,1001.43
2022-09-13T09:27:56.096Z,1001.42
2022-09-13T09:28:36.990Z,1001.44
2022-09-13T09:29:19.744Z,1001.48
2022-09-13T09:29:58.460Z,1001.41
2022-09-13T09:30:39.002Z,1001.45
2022-09-13T09:31:19.684Z,1001.49
2022-09-13T09:32:00.166Z,1001.48
2022-09-13T09:32:41.221Z,1001.45
2022-09-13T09:33:21.744Z,1001.45
2022-09-13T09:34:02.464Z,1001.52
2022-09-13T09:34:43.065Z,1001.48
2022-09-13T09:35:25.323Z,1001.5
2022-09-13T09:36:05.753Z,1001.52
2022-09-13T09:39:05.933Z,1001.52
2022-09-13T09:39:46.288Z,1001.51
2022-09-13T09:43:00.563Z,1001.48
2022-09-13T09:43:41.077Z,1001.46
2022-09-13T09:44:21.602Z,1001.48
2022-09-13T09:46:51.272Z,1001.43
2022-09-13T09:47:31.745Z,1001.4
2022-09-13T09:48:12.335Z,1001.41
2022-09-13T09:48:52.894Z,1001.39
2022-09-13T09:49:33.462Z,1001.43
2022-09-13T09:50:14.044Z,1001.44
2022-09-13T09:50:54.572Z,1001.42
2022-09-13T09:51:35.063Z,1001.43
2022-09-13T09:52:15.661Z,1001.47
2022-09-13T09:52:56.196Z,1001.42
2022-09-13T09:53:37.304Z,1001.47
2022-09-13T09:54:17.267Z,1001.46
2022-09-13T09:54:57.914Z,1001.47
2022-09-13T09:55:38.486Z,1001.47
2022-09-13T09:56:18.999Z,1001.45
2022-09-13T09:56:59.477Z,1001.38
2022-09-13T09:57:40.067Z,1001.44
2022-09-13T09:59:01.183Z,1001.41
2022-09-13T09:59:41.696Z,1001.38
2022-09-13T10:00:23.452Z,1001.39
2022-09-13T10:01:03.253Z,1001.41
2022-09-13T10:01:43.883Z,1001.43
2022-09-13T10:02:24.339Z,1001.43
2022-09-13T10:03:04.872Z,1001.38
2022-09-13T10:03:45.447Z,1001.41
2022-09-13T10:04:25.951Z,1001.35
2022-09-13T10:05:06.584Z,1001.39
2022-09-13T10:05:47.072Z,1001.42
2022-09-13T10:06:27.617Z,1001.38
2022-09-13T10:07:09.763Z,1001.39
2022-09-13T10:07:48.626Z,1001.4
2022-09-13T10:08:29.158Z,1001.43
2022-09-13T10:09:09.687Z,1001.4
2022-09-13T10:09:50.178Z,1001.37
2022-09-13T10:10:30.751Z,1001.38
2022-09-13T10:11:11.202Z,1001.38
2022-09-13T10:11:51.777Z,1001.32
2022-09-13T10:12:32.336Z,1001.33